Time;durP1;ratioP1;P1;durP2;ratioP2;P2;SDS_P1;SDS_P2;PMS_P1;PMS_P2;Temp;Humidity;BMP_temperature;BMP_pressure;BME280_temperature;BME280_humidity;BME280_pressure;Samples;Min_cycle;Max_cycle;Signal;HPM_P1;HPM_P2
2022/08/14 00:01:41;;;;;;;0.20;0.20;;;23.10;74.40;;;;;;5133958;27;20074;-86
2022/08/14 00:04:06;;;;;;;0.20;0.20;;;23.00;74.60;;;;;;5153338;27;20057;-86
2022/08/14 00:06:32;;;;;;;0.20;0.20;;;23.00;75.00;;;;;;5149897;27;20030;-86
2022/08/14 00:08:57;;;;;;;0.20;0.20;;;22.90;75.20;;;;;;5152141;27;20122;-85
2022/08/14 00:11:23;;;;;;;0.20;0.20;;;22.90;75.60;;;;;;5116081;27;20066;-87
2022/08/14 00:13:51;;;;;;;0.20;0.20;;;22.90;76.00;;;;;;5143850;27;20042;-86
2022/08/14 00:16:17;;;;;;;0.20;0.20;;;22.90;76.40;;;;;;5134879;27;20493;-85
2022/08/14 00:18:43;;;;;;;0.20;0.20;;;22.90;76.80;;;;;;5150901;27;20042;-85
2022/08/14 00:21:08;;;;;;;0.20;0.20;;;22.80;77.10;;;;;;5150964;27;20035;-85
2022/08/14 00:23:34;;;;;;;0.17;0.17;;;22.80;77.50;;;;;;5124962;27;20490;-86
2022/08/14 00:26:00;;;;;;;0.20;0.20;;;22.80;78.00;;;;;;5131588;27;20039;-86
2022/08/14 00:28:25;;;;;;;0.20;0.20;;;22.80;78.30;;;;;;5137507;27;20050;-85
2022/08/14 00:30:58;;;;;;;0.20;0.20;;;22.70;78.60;;;;;;5151363;27;20485;-84
2022/08/14 00:33:26;;;;;;;0.20;0.20;;;22.70;79.20;;;;;;5135725;27;20037;-86
2022/08/14 00:35:52;;;;;;;0.20;0.20;;;22.70;79.50;;;;;;5128130;27;20043;-85
2022/08/14 00:38:18;;;;;;;0.20;0.20;;;22.70;80.00;;;;;;5127800;27;20514;-86
2022/08/14 00:40:44;;;;;;;0.20;0.20;;;22.70;80.50;;;;;;5133984;27;20070;-85
2022/08/14 00:43:10;;;;;;;0.20;0.20;;;22.70;81.00;;;;;;5152787;27;20089;-86
2022/08/14 00:45:36;;;;;;;0.20;0.20;;;22.70;81.60;;;;;;5153491;27;20054;-86
2022/08/14 00:48:03;;;;;;;0.20;0.20;;;22.60;81.90;;;;;;5153642;27;20039;-86
2022/08/14 00:50:29;;;;;;;0.15;0.15;;;22.60;82.40;;;;;;5116594;27;20058;-86
2022/08/14 00:52:56;;;;;;;0.20;0.20;;;22.60;82.80;;;;;;5146681;27;20050;-85
2022/08/14 00:55:23;;;;;;;0.30;0.30;;;22.50;83.20;;;;;;5163839;27;20043;-85
2022/08/14 01:00:33;;;;;;;0.20;0.20;;;22.50;84.40;;;;;;5147442;27;20130;-85
2022/08/14 01:03:00;;;;;;;0.20;0.20;;;22.50;84.90;;;;;;5152920;27;20042;-85
2022/08/14 01:05:28;;;;;;;0.20;0.20;;;22.40;85.40;;;;;;5142695;27;20035;-84
2022/08/14 01:07:57;;;;;;;0.20;0.20;;;22.50;85.80;;;;;;5130819;27;20043;-85
2022/08/14 01:10:49;;;;;;;0.17;0.17;;;22.40;86.20;;;;;;5124491;27;20125;-85
2022/08/14 01:13:15;;;;;;;0.20;0.20;;;22.40;86.50;;;;;;5130540;27;20532;-86
2022/08/14 01:15:44;;;;;;;0.20;0.20;;;22.40;86.80;;;;;;5126041;27;20039;-85
2022/08/14 01:21:02;;;;;;;0.20;0.20;;;22.40;87.50;;;;;;5147822;27;20074;-85
2022/08/14 01:23:29;;;;;;;0.20;0.20;;;22.40;87.90;;;;;;5151405;27;20049;-86
2022/08/14 01:25:55;;;;;;;0.20;0.20;;;22.40;88.20;;;;;;5140937;27;20027;-86
2022/08/14 01:28:21;;;;;;;0.10;0.10;;;22.40;88.40;;;;;;5122949;27;20458;-84
2022/08/14 01:30:48;;;;;;;0.20;0.20;;;22.40;89.00;;;;;;5129815;27;20110;-85
2022/08/14 01:33:15;;;;;;;0.20;0.20;;;22.40;89.30;;;;;;5152319;27;20402;-86
2022/08/14 01:35:45;;;;;;;0.20;0.20;;;22.30;89.30;;;;;;5145952;27;20164;-85
2022/08/14 01:38:13;;;;;;;0.10;0.10;;;22.40;89.50;;;;;;5131794;27;20054;-84
2022/08/14 01:40:40;;;;;;;0.17;0.17;;;22.30;89.90;;;;;;5126794;27;20061;-85
2022/08/14 01:43:15;;;;;;;0.20;0.20;;;22.20;90.00;;;;;;5146344;27;20045;-86
2022/08/14 01:45:43;;;;;;;0.20;0.20;;;22.20;90.30;;;;;;5114902;27;20537;-85
2022/08/14 01:48:09;;;;;;;0.20;0.20;;;22.20;90.30;;;;;;5148547;27;20043;-84
2022/08/14 01:50:36;;;;;;;0.20;0.20;;;22.20;90.50;;;;;;5150732;27;20047;-84
2022/08/14 01:53:02;;;;;;;0.20;0.20;;;22.20;90.60;;;;;;5128746;27;20114;-85
2022/08/14 01:55:31;;;;;;;0.20;0.20;;;22.10;90.70;;;;;;5150199;27;20039;-85
2022/08/14 01:57:57;;;;;;;0.20;0.20;;;22.10;90.90;;;;;;5146786;27;20421;-85
2022/08/14 02:00:24;;;;;;;0.20;0.20;;;22.10;91.10;;;;;;5128294;27;20050;-85
2022/08/14 02:02:49;;;;;;;0.20;0.20;;;22.00;91.10;;;;;;5138416;27;20038;-86
2022/08/14 02:05:16;;;;;;;0.20;0.20;;;22.10;91.40;;;;;;5136247;27;20051;-84
2022/08/14 02:07:45;;;;;;;0.20;0.20;;;22.10;91.50;;;;;;5151490;27;20045;-85
2022/08/14 02:10:12;;;;;;;0.20;0.20;;;22.10;91.60;;;;;;5125880;27;20029;-85
2022/08/14 02:12:38;;;;;;;0.20;0.20;;;22.10;91.70;;;;;;5117217;27;20049;-85
2022/08/14 02:15:04;;;;;;;0.20;0.20;;;22.10;91.80;;;;;;5142098;27;20475;-85
2022/08/14 02:17:32;;;;;;;0.20;0.20;;;22.10;92.00;;;;;;5120817;27;20050;-85
2022/08/14 02:19:58;;;;;;;0.10;0.10;;;22.10;92.10;;;;;;5139591;27;20449;-84
2022/08/14 02:22:25;;;;;;;0.20;0.20;;;22.10;92.10;;;;;;5123956;27;20126;-84
2022/08/14 02:24:50;;;;;;;0.20;0.20;;;22.00;92.20;;;;;;5127759;27;20047;-84
2022/08/14 02:27:17;;;;;;;0.20;0.20;;;22.00;92.40;;;;;;5131436;27;20405;-84
2022/08/14 02:29:43;;;;;;;0.20;0.20;;;22.00;92.50;;;;;;5134751;27;20039;-84
2022/08/14 02:32:10;;;;;;;0.20;0.20;;;22.00;92.60;;;;;;5133756;27;20043;-85
2022/08/14 02:34:37;;;;;;;0.20;0.20;;;22.00;92.70;;;;;;5118452;27;20100;-84
2022/08/14 02:37:10;;;;;;;0.17;0.17;;;22.00;92.80;;;;;;5136238;27;20189;-84
2022/08/14 02:39:41;;;;;;;0.20;0.20;;;22.00;92.90;;;;;;5125282;27;20038;-84
2022/08/14 02:42:11;;;;;;;0.20;0.20;;;22.00;93.00;;;;;;5146336;27;20577;-84
2022/08/14 02:44:38;;;;;;;0.20;0.20;;;22.00;93.10;;;;;;5135572;27;20031;-85
2022/08/14 02:47:04;;;;;;;0.15;0.15;;;22.00;93.20;;;;;;5132582;27;20058;-85
2022/08/14 02:49:30;;;;;;;0.20;0.20;;;22.00;93.30;;;;;;5131169;27;20458;-85
2022/08/14 02:51:57;;;;;;;0.20;0.20;;;21.90;93.40;;;;;;5147492;27;20117;-84
2022/08/14 02:54:23;;;;;;;0.20;0.20;;;21.90;93.50;;;;;;5128615;27;20043;-85
2022/08/14 02:56:50;;;;;;;0.20;0.20;;;21.90;93.50;;;;;;5146179;27;20054;-85
2022/08/14 02:59:16;;;;;;;0.15;0.15;;;21.90;93.60;;;;;;5136332;27;20050;-85
2022/08/14 03:01:42;;;;;;;0.10;0.10;;;21.90;93.70;;;;;;5123890;27;20077;-85
2022/08/14 03:04:09;;;;;;;0.13;0.13;;;21.90;93.70;;;;;;5148136;27;20066;-86
2022/08/14 03:06:37;;;;;;;0.20;0.20;;;21.80;93.80;;;;;;5144663;27;20092;-86
2022/08/14 03:09:03;;;;;;;0.20;0.20;;;21.80;93.80;;;;;;5128824;27;20095;-85
2022/08/14 03:11:30;;;;;;;0.10;0.10;;;21.80;94.00;;;;;;5136397;27;20053;-84
2022/08/14 03:13:57;;;;;;;0.10;0.10;;;21.80;94.10;;;;;;5123313;27;20103;-85
2022/08/14 03:16:25;;;;;;;0.20;0.20;;;21.70;94.20;;;;;;5147083;27;20054;-85
2022/08/14 03:18:53;;;;;;;0.20;0.20;;;21.70;94.30;;;;;;5144262;27;20421;-84
2022/08/14 03:21:22;;;;;;;0.20;0.20;;;21.70;94.40;;;;;;5129481;27;20058;-84
2022/08/14 03:23:49;;;;;;;0.20;0.20;;;21.70;94.50;;;;;;5126563;27;20182;-85
2022/08/14 03:26:18;;;;;;;0.20;0.20;;;21.70;94.60;;;;;;5125585;27;20047;-85
2022/08/14 03:28:49;;;;;;;0.10;0.10;;;21.60;94.60;;;;;;5120285;27;20095;-84
2022/08/14 03:31:20;;;;;;;0.20;0.20;;;21.70;94.70;;;;;;5143653;27;20035;-84
2022/08/14 03:33:46;;;;;;;0.20;0.20;;;21.60;94.80;;;;;;5149211;27;20034;-84
2022/08/14 03:36:14;;;;;;;0.20;0.20;;;21.60;94.90;;;;;;5146516;27;20072;-84
2022/08/14 03:38:44;;;;;;;0.20;0.20;;;21.60;94.90;;;;;;5126785;27;20067;-85
2022/08/14 03:41:22;;;;;;;0.20;0.20;;;21.60;95.00;;;;;;5145163;27;20375;-86
2022/08/14 03:43:56;;;;;;;0.10;0.10;;;21.60;95.00;;;;;;5140402;27;20071;-86
2022/08/14 03:46:26;;;;;;;0.20;0.20;;;21.60;95.10;;;;;;5143428;27;20051;-85
2022/08/14 03:48:53;;;;;;;0.20;0.20;;;21.50;95.10;;;;;;5143307;27;20039;-86
2022/08/14 03:51:20;;;;;;;0.17;0.17;;;21.50;95.10;;;;;;5121774;27;20299;-86
2022/08/14 03:53:46;;;;;;;0.10;0.10;;;21.50;95.10;;;;;;5136757;27;20129;-84
2022/08/14 03:56:14;;;;;;;0.13;0.13;;;21.50;95.20;;;;;;5121856;28;20459;-84
2022/08/14 03:58:44;;;;;;;0.20;0.20;;;21.50;95.20;;;;;;5118896;27;20100;-84
2022/08/14 04:01:11;;;;;;;0.20;0.20;;;21.50;95.20;;;;;;5121024;28;20065;-85
2022/08/14 04:03:37;;;;;;;0.20;0.20;;;21.50;95.20;;;;;;5121995;27;20039;-85
2022/08/14 04:06:03;;;;;;;0.13;0.13;;;21.40;95.20;;;;;;5125804;27;20563;-84
2022/08/14 04:08:29;;;;;;;0.20;0.20;;;21.50;95.30;;;;;;5113581;27;20059;-85
2022/08/14 04:10:56;;;;;;;0.10;0.10;;;21.40;95.40;;;;;;5129315;27;20112;-85
2022/08/14 04:13:22;;;;;;;0.20;0.20;;;21.40;95.40;;;;;;5127698;27;20054;-85
2022/08/14 04:15:48;;;;;;;0.20;0.20;;;21.40;95.40;;;;;;5134281;27;20031;-85
2022/08/14 04:18:14;;;;;;;0.10;0.10;;;21.40;95.40;;;;;;5130149;27;20043;-85
2022/08/14 04:20:41;;;;;;;0.20;0.20;;;21.40;95.50;;;;;;5113967;28;20044;-85
2022/08/14 04:23:08;;;;;;;0.20;0.20;;;21.40;95.50;;;;;;5116109;27;20067;-84
2022/08/14 04:25:35;;;;;;;0.20;0.20;;;21.40;95.50;;;;;;5114849;27;20067;-85
2022/08/14 04:28:05;;;;;;;0.10;0.10;;;21.40;95.60;;;;;;5125551;27;20053;-86
2022/08/14 04:30:37;;;;;;;0.10;0.10;;;21.40;95.60;;;;;;5115004;27;20172;-84
2022/08/14 04:33:05;;;;;;;0.20;0.20;;;21.40;95.60;;;;;;5122444;27;20136;-86
2022/08/14 04:35:30;;;;;;;0.20;0.20;;;21.40;95.60;;;;;;5130645;27;20043;-86
2022/08/14 04:43:38;;;;;;;0.20;0.20;;;21.40;95.70;;;;;;5120800;27;20337;-84
2022/08/14 04:46:14;;;;;;;0.20;0.20;;;21.30;95.80;;;;;;5121846;27;20043;-84
2022/08/14 04:48:40;;;;;;;0.20;0.20;;;21.40;95.90;;;;;;5130082;27;20027;-86
2022/08/14 04:51:09;;;;;;;0.20;0.20;;;21.30;96.10;;;;;;5130916;27;20046;-84
2022/08/14 04:53:37;;;;;;;0.20;0.20;;;21.30;95.90;;;;;;5137034;27;20025;-85
2022/08/14 04:56:04;;;;;;;0.20;0.20;;;21.30;95.90;;;;;;5135583;27;20502;-86
2022/08/14 04:58:32;;;;;;;0.10;0.10;;;21.40;96.20;;;;;;5134012;27;20779;-85
2022/08/14 05:00:58;;;;;;;0.10;0.10;;;21.30;95.90;;;;;;5141732;27;20039;-86
2022/08/14 05:03:30;;;;;;;0.10;0.10;;;21.30;96.10;;;;;;5138122;27;20043;-86
2022/08/14 05:05:59;;;;;;;0.10;0.10;;;21.30;96.30;;;;;;5135681;27;20100;-84
2022/08/14 05:08:26;;;;;;;0.20;0.20;;;21.40;96.10;;;;;;5127984;27;20043;-85
2022/08/14 05:10:53;;;;;;;0.20;0.20;;;21.40;96.20;;;;;;5132891;27;20107;-86
2022/08/14 05:13:22;;;;;;;0.20;0.20;;;21.40;96.20;;;;;;5132558;27;20035;-85
2022/08/14 05:15:49;;;;;;;0.20;0.20;;;21.40;96.20;;;;;;5126254;27;20039;-85
2022/08/14 05:18:21;;;;;;;0.10;0.10;;;21.40;96.30;;;;;;5116500;27;20078;-84
2022/08/14 05:20:52;;;;;;;0.20;0.20;;;21.40;96.40;;;;;;5131336;27;20043;-85
2022/08/14 05:23:21;;;;;;;0.20;0.20;;;21.40;96.50;;;;;;5133178;27;20092;-85
2022/08/14 05:25:50;;;;;;;0.20;0.20;;;21.40;96.60;;;;;;5128199;27;20087;-84
2022/08/14 05:28:21;;;;;;;0.20;0.20;;;21.40;96.70;;;;;;5125325;27;20043;-85
2022/08/14 05:31:00;;;;;;;0.20;0.20;;;21.40;96.80;;;;;;5128679;27;20047;-84
2022/08/14 05:33:27;;;;;;;0.13;0.13;;;21.40;96.90;;;;;;5135605;27;20411;-85
2022/08/14 05:35:59;;;;;;;0.20;0.20;;;21.50;97.00;;;;;;5116250;27;20440;-85
2022/08/14 05:38:27;;;;;;;0.20;0.20;;;21.60;97.00;;;;;;5126129;27;20047;-84
2022/08/14 05:40:53;;;;;;;0.17;0.17;;;21.50;97.00;;;;;;5126466;27;20043;-85
2022/08/14 05:43:19;;;;;;;0.20;0.20;;;21.60;97.00;;;;;;5111921;27;20410;-85
2022/08/14 05:45:45;;;;;;;0.20;0.20;;;21.60;97.00;;;;;;5112351;27;20036;-85
2022/08/14 05:48:14;;;;;;;0.20;0.20;;;21.60;97.10;;;;;;5111746;27;20595;-86
2022/08/14 05:50:40;;;;;;;0.20;0.20;;;21.70;97.00;;;;;;5114655;27;20039;-85
2022/08/14 05:53:06;;;;;;;0.20;0.20;;;21.70;97.00;;;;;;5112277;27;20506;-85
2022/08/14 05:55:32;;;;;;;0.20;0.20;;;21.70;96.90;;;;;;5119022;27;20040;-85
2022/08/14 05:58:06;;;;;;;0.20;0.20;;;21.80;96.90;;;;;;5097021;28;20512;-84
2022/08/14 06:00:39;;;;;;;0.20;0.20;;;21.90;97.00;;;;;;5101420;28;20056;-86
2022/08/14 06:03:13;;;;;;;0.20;0.20;;;21.90;97.00;;;;;;5101218;28;20044;-85
2022/08/14 06:05:40;;;;;;;0.20;0.20;;;21.90;96.90;;;;;;5102387;28;20048;-85
2022/08/14 06:08:20;;;;;;;0.20;0.20;;;22.00;97.00;;;;;;5096788;28;20039;-85
2022/08/14 06:10:46;;;;;;;0.20;0.20;;;22.10;97.10;;;;;;5105058;28;20093;-86
2022/08/14 06:13:12;;;;;;;0.20;0.20;;;22.10;97.10;;;;;;5095758;28;20491;-85
2022/08/14 06:15:38;;;;;;;0.10;0.10;;;22.10;97.00;;;;;;5097329;28;20089;-84
2022/08/14 06:18:04;;;;;;;0.20;0.20;;;22.20;97.00;;;;;;5107796;28;20039;-84
2022/08/14 06:20:30;;;;;;;0.20;0.20;;;22.30;97.00;;;;;;5102082;28;20040;-85
2022/08/14 06:22:56;;;;;;;0.20;0.20;;;22.30;96.90;;;;;;5107356;28;20596;-83
2022/08/14 06:25:22;;;;;;;0.20;0.20;;;22.30;97.00;;;;;;5096297;28;20047;-85
2022/08/14 06:27:48;;;;;;;0.20;0.20;;;22.30;97.00;;;;;;5100864;28;20081;-85
2022/08/14 06:30:17;;;;;;;0.20;0.20;;;22.30;96.90;;;;;;5101442;28;20043;-86
2022/08/14 06:32:43;;;;;;;0.20;0.20;;;22.50;96.90;;;;;;5100821;28;20102;-85
2022/08/14 06:35:11;;;;;;;0.10;0.10;;;22.50;96.90;;;;;;5109210;28;20036;-86
2022/08/14 06:37:50;;;;;;;0.20;0.20;;;22.50;96.90;;;;;;5101841;28;20039;-83
2022/08/14 06:40:21;;;;;;;0.15;0.15;;;22.60;96.90;;;;;;5097371;28;20032;-85
2022/08/14 06:42:48;;;;;;;0.20;0.20;;;22.70;96.80;;;;;;5101169;28;20119;-84
2022/08/14 06:45:13;;;;;;;0.20;0.20;;;22.70;96.70;;;;;;5101472;28;20036;-84
2022/08/14 06:47:41;;;;;;;0.20;0.20;;;22.70;96.70;;;;;;5103093;28;20040;-85
2022/08/14 06:50:17;;;;;;;0.20;0.20;;;22.80;96.80;;;;;;5101162;28;20036;-84
2022/08/14 06:52:43;;;;;;;0.10;0.10;;;22.90;96.80;;;;;;5097267;28;20048;-86
2022/08/14 06:55:10;;;;;;;0.20;0.20;;;22.90;96.80;;;;;;5103102;28;20035;-87
2022/08/14 06:57:42;;;;;;;0.13;0.13;;;22.90;96.60;;;;;;5120386;27;20063;-85
2022/08/14 07:00:12;;;;;;;0.13;0.13;;;23.00;96.50;;;;;;5104212;28;20055;-85
2022/08/14 07:08:12;;;;;;;0.20;0.20;;;23.10;96.40;;;;;;5104608;28;20507;-87
2022/08/14 07:10:38;;;;;;;0.10;0.10;;;23.20;96.40;;;;;;5120239;28;20119;-86
2022/08/14 07:13:05;;;;;;;0.20;0.20;;;23.20;96.40;;;;;;5119093;28;20372;-87
2022/08/14 07:15:32;;;;;;;0.15;0.15;;;23.30;96.40;;;;;;5110203;28;20614;-85
2022/08/14 07:17:58;;;;;;;0.20;0.20;;;23.30;96.40;;;;;;5108798;28;20123;-84
2022/08/14 07:20:24;;;;;;;0.20;0.20;;;23.40;96.80;;;;;;5103729;28;20098;-85
2022/08/14 07:22:49;;;;;;;0.20;0.20;;;23.40;96.60;;;;;;5107066;28;20495;-85
2022/08/14 07:25:15;;;;;;;0.20;0.20;;;23.40;96.40;;;;;;5106352;28;20043;-85
2022/08/14 07:27:42;;;;;;;0.20;0.20;;;23.50;96.40;;;;;;5104900;28;20123;-84
2022/08/14 07:30:08;;;;;;;0.20;0.20;;;23.60;96.40;;;;;;5102190;28;20043;-84
2022/08/14 07:32:34;;;;;;;0.20;0.20;;;23.60;96.20;;;;;;5109621;28;20043;-85
2022/08/14 07:34:59;;;;;;;0.20;0.20;;;23.70;96.10;;;;;;5107435;28;20485;-86
2022/08/14 07:37:25;;;;;;;0.20;0.20;;;23.70;96.10;;;;;;5107600;28;20043;-84
2022/08/14 07:39:51;;;;;;;0.20;0.20;;;;;;;;;;5109108;27;20101;-84
2022/08/14 07:42:17;;;;;;;0.20;0.20;;;;;;;;;;5103624;28;20043;-85
2022/08/14 07:44:43;;;;;;;0.20;0.20;;;;;;;;;;5106374;27;20051;-85
2022/08/14 07:47:09;;;;;;;0.20;0.20;;;;;;;;;;5116223;27;20181;-85
2022/08/14 07:49:35;;;;;;;0.20;0.20;;;;;;;;;;5110040;27;20366;-85
2022/08/14 07:52:02;;;;;;;0.20;0.20;;;;;;;;;;5114157;27;20040;-86
2022/08/14 07:54:28;;;;;;;0.20;0.20;;;;;;;;;;5114035;27;20075;-85
2022/08/14 07:56:54;;;;;;;0.20;0.20;;;;;;;;;;5122388;27;20051;-86
2022/08/14 07:59:22;;;;;;;0.10;0.10;;;;;;;;;;5133003;27;20061;-86
2022/08/14 08:01:49;;;;;;;0.20;0.20;;;;;;;;;;5129558;27;20928;-86
2022/08/14 08:04:15;;;;;;;0.20;0.20;;;;;;;;;;5150702;27;20034;-85
2022/08/14 08:06:41;;;;;;;0.20;0.20;;;;;;;;;;5135593;27;20049;-85
2022/08/14 08:09:08;;;;;;;0.20;0.20;;;;;;;;;;5152440;27;20550;-86
2022/08/14 08:11:35;;;;;;;0.20;0.20;;;;;;;;;;5130685;27;20464;-88
2022/08/14 08:14:05;;;;;;;0.20;0.20;;;;;;;;;;5131718;27;20659;-84
2022/08/14 08:16:32;;;;;;;0.20;0.20;;;;;;;;;;5123633;27;20709;-83
2022/08/14 08:18:58;;;;;;;0.10;0.10;;;;;;;;;;5128908;27;20053;-82
2022/08/14 08:21:25;;;;;;;0.20;0.20;;;;;;;;;;5124367;27;20038;-82
2022/08/14 08:23:53;;;;;;;0.20;0.20;;;;;;;;;;5138642;27;20043;-82
2022/08/14 08:26:19;;;;;;;0.20;0.20;;;;;;;;;;5148703;27;20050;-82
2022/08/14 08:28:55;;;;;;;0.20;0.20;;;;;;;;;;5119595;27;20046;-82
2022/08/14 08:31:21;;;;;;;0.20;0.20;;;;;;;;;;5126417;27;20035;-81
2022/08/14 08:33:51;;;;;;;0.20;0.20;;;;;;;;;;5144451;27;20131;-81
2022/08/14 08:36:17;;;;;;;0.20;0.20;;;;;;;;;;5130799;27;20066;-86
2022/08/14 08:38:44;;;;;;;0.28;0.28;;;;;;;;;;5148251;27;20035;-86
2022/08/14 08:41:14;;;;;;;0.20;0.20;;;;;;;;;;5132076;27;20057;-87
2022/08/14 08:43:40;;;;;;;0.20;0.20;;;;;;;;;;5142309;27;20091;-85
2022/08/14 08:46:08;;;;;;;0.20;0.20;;;;;;;;;;5143800;27;20042;-86
2022/08/14 08:48:47;;;;;;;0.20;0.20;;;;;;;;;;5148764;27;20544;-88
2022/08/14 08:51:26;;;;;;;0.20;0.20;;;;;;;;;;5139005;27;20042;-89
2022/08/14 08:53:57;;;;;;;0.20;0.20;;;;;;;;;;5143519;27;20545;-88
2022/08/14 08:56:41;;;;;;;0.25;0.25;;;;;;;;;;5123179;27;20065;-88
2022/08/14 08:59:21;;;;;;;0.20;0.20;;;;;;;;;;5130888;27;20046;-88
2022/08/14 09:01:56;;;;;;;0.20;0.20;;;;;;;;;;5129202;27;20035;-90
2022/08/14 09:04:24;;;;;;;0.20;0.20;;;;;;;;;;5125152;27;20079;-92
2022/08/14 09:06:50;;;;;;;0.20;0.20;;;;;;;;;;5128719;27;20121;-88
2022/08/14 09:09:26;;;;;;;0.20;0.20;;;;;;;;;;5146580;27;20039;-87
2022/08/14 09:11:53;;;;;;;0.20;0.20;;;;;;;;;;5132039;27;20141;-88
2022/08/14 09:14:22;;;;;;;0.25;0.25;;;;;;;;;;5142817;27;20046;-86
2022/08/14 09:16:49;;;;;;;0.22;0.22;;;;;;;;;;5125131;27;20058;-87
2022/08/14 09:19:15;;;;;;;0.30;0.30;;;;;;;;;;5134999;27;20043;-87
2022/08/14 09:21:41;;;;;;;0.20;0.20;;;;;;;;;;5134864;27;20035;-88
2022/08/14 09:24:08;;;;;;;0.20;0.20;;;;;;;;;;5132742;27;20490;-87
2022/08/14 09:26:35;;;;;;;0.20;0.20;;;;;;;;;;5144665;27;20411;-87
2022/08/14 09:29:01;;;;;;;0.30;0.30;;;;;;;;;;5151766;27;20045;-87
2022/08/14 09:31:29;;;;;;;0.20;0.20;;;;;;;;;;5124525;27;20118;-86
2022/08/14 09:34:07;;;;;;;0.22;0.22;;;;;;;;;;5129036;27;20546;-87
2022/08/14 09:36:40;;;;;;;0.20;0.20;;;;;;;;;;5148343;27;20731;-86
2022/08/14 09:39:16;;;;;;;0.25;0.25;;;;;;;;;;5132535;27;20079;-87
2022/08/14 09:42:00;;;;;;;0.20;0.20;;;;;;;;;;5144136;27;20083;-87
2022/08/14 09:44:44;;;;;;;0.20;0.20;;;26.80;90.50;;;;;;5137895;27;20118;-86
2022/08/14 09:47:11;;;;;;;0.20;0.20;;;26.80;90.60;;;;;;5135075;27;20065;-86
2022/08/14 09:49:38;;;;;;;0.20;0.20;;;26.90;90.40;;;;;;5143092;27;20047;-86
2022/08/14 09:52:06;;;;;;;0.20;0.20;;;26.90;90.30;;;;;;5121170;27;20386;-85
2022/08/14 09:54:50;;;;;;;0.20;0.20;;;27.00;90.20;;;;;;5140609;27;20447;-84
2022/08/14 09:57:29;;;;;;;0.20;0.20;;;27.00;90.00;;;;;;5121796;27;20062;-84
2022/08/14 09:59:56;;;;;;;0.20;0.20;;;27.10;89.80;;;;;;5133595;27;20047;-84
2022/08/14 10:02:29;;;;;;;0.20;0.20;;;27.10;88.90;;;;;;5137763;27;20043;-84
2022/08/14 10:05:08;;;;;;;0.20;0.20;;;27.20;89.20;;;;;;5147063;27;20050;-85
2022/08/14 10:07:50;;;;;;;0.20;0.20;;;27.20;89.10;;;;;;5141494;27;20358;-84
2022/08/14 10:10:38;;;;;;;0.20;0.20;;;27.30;89.00;;;;;;5141444;27;20042;-86
2022/08/14 10:13:19;;;;;;;0.20;0.20;;;27.40;89.00;;;;;;5123205;27;20047;-87
2022/08/14 10:15:47;;;;;;;0.20;0.20;;;27.50;89.00;;;;;;5130434;27;20118;-86
2022/08/14 10:18:15;;;;;;;0.20;0.20;;;27.50;88.70;;;;;;5115786;27;20524;-86
2022/08/14 10:20:44;;;;;;;0.20;0.20;;;27.60;88.20;;;;;;5128912;27;20050;-87
2022/08/14 10:23:12;;;;;;;0.20;0.20;;;27.60;88.00;;;;;;5145731;27;20745;-86
2022/08/14 10:25:49;;;;;;;0.20;0.20;;;27.70;88.00;;;;;;5137630;27;20192;-85
2022/08/14 10:28:17;;;;;;;0.20;0.20;;;27.70;87.70;;;;;;5138717;27;20042;-89
2022/08/14 10:30:47;;;;;;;0.28;0.28;;;27.80;87.50;;;;;;5144321;27;20039;-87
2022/08/14 10:33:31;;;;;;;0.20;0.20;;;27.80;86.40;;;;;;5138467;27;20391;-86
2022/08/14 10:36:01;;;;;;;0.20;0.20;;;27.80;86.10;;;;;;5120583;27;20047;-87
2022/08/14 10:38:32;;;;;;;0.20;0.20;;;27.80;85.70;;;;;;5119825;27;20293;-87
2022/08/14 10:41:15;;;;;;;0.20;0.20;;;27.90;85.70;;;;;;5138757;27;20077;-86
2022/08/14 10:43:42;;;;;;;0.20;0.20;;;27.90;85.90;;;;;;5120955;27;20553;-87
2022/08/14 10:46:17;;;;;;;0.20;0.20;;;28.00;85.90;;;;;;5120798;27;20552;-86
2022/08/14 10:49:01;;;;;;;0.20;0.20;;;28.10;85.60;;;;;;5141502;27;20430;-86
2022/08/14 10:51:28;;;;;;;0.20;0.20;;;28.10;85.20;;;;;;5144937;27;20051;-85
2022/08/14 10:53:57;;;;;;;0.20;0.20;;;28.20;84.90;;;;;;5121966;27;20058;-85
2022/08/14 10:56:36;;;;;;;0.20;0.20;;;28.20;84.70;;;;;;5147477;27;20102;-86
2022/08/14 10:59:07;;;;;;;0.20;0.20;;;28.30;84.10;;;;;;5142735;27;20047;-86
2022/08/14 11:01:35;;;;;;;0.20;0.20;;;28.40;84.00;;;;;;5129659;27;20127;-88
2022/08/14 11:04:02;;;;;;;0.20;0.20;;;28.40;83.50;;;;;;5130855;27;20673;-88
2022/08/14 11:06:29;;;;;;;0.20;0.20;;;28.50;83.00;;;;;;5125907;28;20368;-87
2022/08/14 11:08:55;;;;;;;0.20;0.20;;;28.50;82.50;;;;;;5147765;27;20046;-86
2022/08/14 11:11:26;;;;;;;0.30;0.30;;;28.60;82.60;;;;;;5127715;27;20078;-88
2022/08/14 11:13:56;;;;;;;0.22;0.22;;;28.60;82.10;;;;;;5140218;27;20455;-89
2022/08/14 11:16:23;;;;;;;0.20;0.20;;;28.70;82.10;;;;;;5137566;27;20038;-88
2022/08/14 11:18:49;;;;;;;0.20;0.20;;;28.80;81.50;;;;;;5116691;27;20336;-86
2022/08/14 11:21:21;;;;;;;0.20;0.20;;;28.80;81.10;;;;;;5119077;27;20051;-86
2022/08/14 11:23:48;;;;;;;0.20;0.20;;;28.90;80.60;;;;;;5131569;27;20038;-88
2022/08/14 11:26:18;;;;;;;0.20;0.20;;;29.00;80.40;;;;;;5120567;27;20065;-86
2022/08/14 11:28:47;;;;;;;0.30;0.30;;;29.10;79.80;;;;;;5123058;27;20432;-87
2022/08/14 11:31:14;;;;;;;0.20;0.20;;;29.10;79.80;;;;;;5133286;27;20039;-86
2022/08/14 11:33:40;;;;;;;0.20;0.20;;;29.20;79.80;;;;;;5136927;27;20074;-86
2022/08/14 11:36:08;;;;;;;0.25;0.25;;;29.30;79.40;;;;;;5139068;27;20035;-87
2022/08/14 11:38:45;;;;;;;0.20;0.20;;;29.30;79.50;;;;;;5145420;27;20166;-85
2022/08/14 11:41:12;;;;;;;0.20;0.20;;;29.40;79.50;;;;;;5142930;27;20371;-86
2022/08/14 11:43:41;;;;;;;0.30;0.30;;;29.50;79.00;;;;;;5139994;27;20066;-81
2022/08/14 11:46:09;;;;;;;0.20;0.20;;;29.60;78.40;;;;;;5142937;27;20049;-87
2022/08/14 11:48:48;;;;;;;0.20;0.20;;;29.70;78.10;;;;;;5136056;27;20104;-87
2022/08/14 11:51:24;;;;;;;0.20;0.20;;;29.80;77.60;;;;;;5127790;27;20043;-90
2022/08/14 11:53:59;;;;;;;0.30;0.30;;;29.80;77.40;;;;;;5152672;27;20042;-90
2022/08/14 11:56:34;;;;;;;0.20;0.20;;;29.90;76.20;;;;;;5151803;27;20039;-86
2022/08/14 11:59:00;;;;;;;0.50;0.50;;;30.00;76.90;;;;;;5126920;27;20051;-89
2022/08/14 12:01:29;;;;;;;0.20;0.20;;;30.00;76.60;;;;;;5141971;27;20390;-88
2022/08/14 12:04:07;;;;;;;0.20;0.20;;;30.10;76.60;;;;;;5136466;27;20616;-90
2022/08/14 12:06:51;;;;;;;0.20;0.20;;;30.10;76.30;;;;;;5123767;27;20247;-88
2022/08/14 12:09:34;;;;;;;0.30;0.30;;;30.10;75.90;;;;;;5122107;27;20035;-87
2022/08/14 12:12:12;;;;;;;0.98;0.68;;;30.20;76.00;;;;;;5135925;27;20030;-87
2022/08/14 12:14:52;;;;;;;0.40;0.40;;;30.30;75.70;;;;;;5145071;27;20049;-88
2022/08/14 12:17:18;;;;;;;0.20;0.20;;;30.50;75.90;;;;;;5124712;27;20058;-88
2022/08/14 12:19:49;;;;;;;0.25;0.25;;;30.60;75.50;;;;;;5126948;27;20051;-87
2022/08/14 12:22:14;;;;;;;0.30;0.30;;;30.70;73.90;;;;;;5148829;27;20043;-90
2022/08/14 12:24:45;;;;;;;0.30;0.30;;;30.90;74.70;;;;;;5135976;27;20121;-87
2022/08/14 12:27:14;;;;;;;0.20;0.20;;;30.90;74.30;;;;;;5130197;27;20054;-86
2022/08/14 12:29:51;;;;;;;0.20;0.20;;;30.90;73.90;;;;;;5130724;27;20103;-87
2022/08/14 12:32:16;;;;;;;0.20;0.20;;;31.00;74.10;;;;;;5148940;27;20215;-85
2022/08/14 12:34:42;;;;;;;0.20;0.20;;;31.10;73.90;;;;;;5147278;27;20468;-86
2022/08/14 12:37:08;;;;;;;0.20;0.20;;;31.20;73.70;;;;;;5128891;27;20125;-85
2022/08/14 12:39:35;;;;;;;0.20;0.20;;;31.30;72.60;;;;;;5145071;27;20069;-86
2022/08/14 12:42:05;;;;;;;0.20;0.20;;;31.20;72.30;;;;;;5126298;27;20064;-86
2022/08/14 12:44:34;;;;;;;0.20;0.20;;;31.30;72.90;;;;;;5146176;27;20109;-85
2022/08/14 12:47:06;;;;;;;0.20;0.20;;;31.40;73.50;;;;;;5124294;27;20039;-86
2022/08/14 12:49:32;;;;;;;0.20;0.20;;;31.60;72.60;;;;;;5144625;27;20038;-86
2022/08/14 12:52:01;;;;;;;0.20;0.20;;;31.70;72.40;;;;;;5145266;27;20051;-85
2022/08/14 12:54:28;;;;;;;0.20;0.20;;;31.80;72.20;;;;;;5121759;27;20533;-88
2022/08/14 12:57:34;;;;;;;0.20;0.20;;;32.00;72.20;;;;;;5135088;27;20528;-87
2022/08/14 13:00:14;;;;;;;0.20;0.20;;;32.10;71.70;;;;;;5087556;27;20063;-85
2022/08/14 13:02:40;;;;;;;0.20;0.20;;;32.20;71.30;;;;;;5126011;27;20509;-86
2022/08/14 13:05:11;;;;;;;0.20;0.20;;;32.40;70.80;;;;;;5144605;27;20047;-87
2022/08/14 13:07:41;;;;;;;0.20;0.20;;;32.50;70.00;;;;;;5151936;27;20049;-85
2022/08/14 13:10:08;;;;;;;;;;;32.50;69.90;;;;;;5120137;27;20051;-86
2022/08/14 13:12:37;;;;;;;0.20;0.20;;;32.50;69.60;;;;;;5129279;27;19923;-86
2022/08/14 13:15:09;;;;;;;0.20;0.20;;;32.50;69.20;;;;;;5129260;27;20098;-86
2022/08/14 13:17:46;;;;;;;0.20;0.20;;;32.40;69.20;;;;;;5144611;27;20521;-87
2022/08/14 13:20:16;;;;;;;0.20;0.20;;;32.40;69.70;;;;;;5146164;27;20035;-87
2022/08/14 13:22:44;;;;;;;0.20;0.20;;;32.40;68.80;;;;;;5147981;27;20685;-85
2022/08/14 13:25:28;;;;;;;0.30;0.30;;;32.30;68.40;;;;;;5150936;27;20080;-86
2022/08/14 13:27:57;;;;;;;0.20;0.20;;;32.20;68.20;;;;;;5147237;27;20031;-93
2022/08/14 13:30:25;;;;;;;0.20;0.20;;;32.10;68.20;;;;;;5118446;27;20046;-91